sensor_id;sensor_type;location;lat;lon;timestamp;P1;durP1;ratioP1;P2;durP2;ratioP2
50789;SDS011;37287;47.554;7.844;2023-04-24T00:01:54;0.57;;;0.40;;
50789;SDS011;37287;47.554;7.844;2023-04-24T00:04:21;1.45;;;0.75;;
50789;SDS011;37287;47.554;7.844;2023-04-24T00:06:48;0.43;;;0.30;;
50789;SDS011;37287;47.554;7.844;2023-04-24T00:09:20;0.95;;;0.30;;
50789;SDS011;37287;47.554;7.844;2023-04-24T00:11:46;0.55;;;0.40;;
50789;SDS011;37287;47.554;7.844;2023-04-24T00:14:17;0.47;;;0.20;;
50789;SDS011;37287;47.554;7.844;2023-04-24T00:16:44;0.30;;;0.28;;
50789;SDS011;37287;47.554;7.844;2023-04-24T00:19:11;1.45;;;0.35;;
50789;SDS011;37287;47.554;7.844;2023-04-24T00:21:40;0.20;;;0.20;;
50789;SDS011;37287;47.554;7.844;2023-04-24T00:24:07;0.98;;;0.30;;
50789;SDS011;37287;47.554;7.844;2023-04-24T00:26:37;1.88;;;0.50;;
50789;SDS011;37287;47.554;7.844;2023-04-24T00:29:06;0.45;;;0.32;;
50789;SDS011;37287;47.554;7.844;2023-04-24T00:31:32;1.98;;;0.15;;
50789;SDS011;37287;47.554;7.844;2023-04-24T00:34:01;0.22;;;0.22;;
50789;SDS011;37287;47.554;7.844;2023-04-24T00:36:28;0.35;;;0.20;;
50789;SDS011;37287;47.554;7.844;2023-04-24T00:38:57;0.88;;;0.30;;
50789;SDS011;37287;47.554;7.844;2023-04-24T00:41:24;0.20;;;0.20;;
50789;SDS011;37287;47.554;7.844;2023-04-24T00:43:51;0.13;;;0.10;;
50789;SDS011;37287;47.554;7.844;2023-04-24T00:46:21;0.88;;;0.30;;
50789;SDS011;37287;47.554;7.844;2023-04-24T00:48:48;0.40;;;0.40;;
50789;SDS011;37287;47.554;7.844;2023-04-24T00:51:18;0.40;;;0.40;;
50789;SDS011;37287;47.554;7.844;2023-04-24T00:53:46;0.50;;;0.40;;
50789;SDS011;37287;47.554;7.844;2023-04-24T00:56:12;1.15;;;0.22;;
50789;SDS011;37287;47.554;7.844;2023-04-24T00:58:41;0.68;;;0.40;;
50789;SDS011;37287;47.554;7.844;2023-04-24T01:01:09;0.77;;;0.40;;
50789;SDS011;37287;47.554;7.844;2023-04-24T01:03:37;0.43;;;0.20;;
50789;SDS011;37287;47.554;7.844;2023-04-24T01:06:05;0.68;;;0.20;;
50789;SDS011;37287;47.554;7.844;2023-04-24T01:08:31;8.77;;;0.30;;
50789;SDS011;37287;47.554;7.844;2023-04-24T01:10:59;0.38;;;0.15;;
50789;SDS011;37287;47.554;7.844;2023-04-24T01:13:29;0.90;;;0.20;;
50789;SDS011;37287;47.554;7.844;2023-04-24T01:15:57;0.90;;;0.32;;
50789;SDS011;37287;47.554;7.844;2023-04-24T01:18:24;0.30;;;0.10;;
50789;SDS011;37287;47.554;7.844;2023-04-24T01:20:59;0.82;;;0.20;;
50789;SDS011;37287;47.554;7.844;2023-04-24T01:23:28;0.57;;;0.30;;
50789;SDS011;37287;47.554;7.844;2023-04-24T01:25:55;1.30;;;0.50;;
50789;SDS011;37287;47.554;7.844;2023-04-24T01:28:22;0.47;;;0.30;;
50789;SDS011;37287;47.554;7.844;2023-04-24T01:30:50;0.65;;;0.50;;
50789;SDS011;37287;47.554;7.844;2023-04-24T01:33:17;0.45;;;0.20;;
50789;SDS011;37287;47.554;7.844;2023-04-24T01:35:44;0.47;;;0.20;;
50789;SDS011;37287;47.554;7.844;2023-04-24T01:38:11;0.57;;;0.30;;
50789;SDS011;37287;47.554;7.844;2023-04-24T01:40:38;0.38;;;0.28;;
50789;SDS011;37287;47.554;7.844;2023-04-24T01:43:04;0.93;;;0.35;;
50789;SDS011;37287;47.554;7.844;2023-04-24T01:45:33;0.93;;;0.35;;
50789;SDS011;37287;47.554;7.844;2023-04-24T01:48:00;0.50;;;0.25;;
50789;SDS011;37287;47.554;7.844;2023-04-24T01:50:30;0.17;;;0.10;;
50789;SDS011;37287;47.554;7.844;2023-04-24T01:52:57;0.47;;;0.28;;
50789;SDS011;37287;47.554;7.844;2023-04-24T01:55:23;0.47;;;0.30;;
50789;SDS011;37287;47.554;7.844;2023-04-24T01:57:52;0.95;;;0.20;;
50789;SDS011;37287;47.554;7.844;2023-04-24T02:00:20;0.65;;;0.30;;
50789;SDS011;37287;47.554;7.844;2023-04-24T02:02:47;0.98;;;0.30;;
50789;SDS011;37287;47.554;7.844;2023-04-24T02:05:15;1.42;;;0.47;;
50789;SDS011;37287;47.554;7.844;2023-04-24T02:07:46;0.35;;;0.30;;
50789;SDS011;37287;47.554;7.844;2023-04-24T02:10:20;0.82;;;0.32;;
50789;SDS011;37287;47.554;7.844;2023-04-24T02:12:46;0.38;;;0.20;;
50789;SDS011;37287;47.554;7.844;2023-04-24T02:15:13;0.85;;;0.25;;
50789;SDS011;37287;47.554;7.844;2023-04-24T02:17:46;0.22;;;0.20;;
50789;SDS011;37287;47.554;7.844;2023-04-24T02:20:13;1.00;;;0.40;;
50789;SDS011;37287;47.554;7.844;2023-04-24T02:22:39;2.20;;;0.50;;
50789;SDS011;37287;47.554;7.844;2023-04-24T02:25:08;0.88;;;0.55;;
50789;SDS011;37287;47.554;7.844;2023-04-24T02:27:35;0.77;;;0.38;;
50789;SDS011;37287;47.554;7.844;2023-04-24T02:30:02;0.35;;;0.22;;
50789;SDS011;37287;47.554;7.844;2023-04-24T02:32:29;2.38;;;0.30;;
50789;SDS011;37287;47.554;7.844;2023-04-24T02:34:56;0.35;;;0.15;;
50789;SDS011;37287;47.554;7.844;2023-04-24T02:37:23;1.38;;;0.30;;
50789;SDS011;37287;47.554;7.844;2023-04-24T02:39:54;1.00;;;0.30;;
50789;SDS011;37287;47.554;7.844;2023-04-24T02:42:21;5.07;;;0.50;;
50789;SDS011;37287;47.554;7.844;2023-04-24T02:44:47;1.23;;;0.30;;
50789;SDS011;37287;47.554;7.844;2023-04-24T02:47:16;0.25;;;0.20;;
50789;SDS011;37287;47.554;7.844;2023-04-24T02:49:43;0.40;;;0.40;;
50789;SDS011;37287;47.554;7.844;2023-04-24T02:52:10;0.63;;;0.28;;
50789;SDS011;37287;47.554;7.844;2023-04-24T02:54:38;2.03;;;0.52;;
50789;SDS011;37287;47.554;7.844;2023-04-24T02:57:05;3.92;;;0.13;;
50789;SDS011;37287;47.554;7.844;2023-04-24T02:59:32;0.50;;;0.30;;
50789;SDS011;37287;47.554;7.844;2023-04-24T03:02:06;2.50;;;0.32;;
50789;SDS011;37287;47.554;7.844;2023-04-24T03:04:32;0.85;;;0.40;;
50789;SDS011;37287;47.554;7.844;2023-04-24T03:06:59;0.75;;;0.50;;
50789;SDS011;37287;47.554;7.844;2023-04-24T03:09:27;0.52;;;0.30;;
50789;SDS011;37287;47.554;7.844;2023-04-24T03:11:54;1.15;;;0.52;;
50789;SDS011;37287;47.554;7.844;2023-04-24T03:14:23;0.20;;;0.20;;
50789;SDS011;37287;47.554;7.844;2023-04-24T03:16:50;2.45;;;0.40;;
50789;SDS011;37287;47.554;7.844;2023-04-24T03:19:16;0.10;;;0.10;;
50789;SDS011;37287;47.554;7.844;2023-04-24T03:21:43;0.22;;;0.20;;
50789;SDS011;37287;47.554;7.844;2023-04-24T03:24:10;0.20;;;0.20;;
50789;SDS011;37287;47.554;7.844;2023-04-24T03:26:37;0.20;;;0.20;;
50789;SDS011;37287;47.554;7.844;2023-04-24T03:29:03;0.15;;;0.15;;
50789;SDS011;37287;47.554;7.844;2023-04-24T03:31:30;1.17;;;0.38;;
50789;SDS011;37287;47.554;7.844;2023-04-24T03:33:56;0.13;;;0.13;;
50789;SDS011;37287;47.554;7.844;2023-04-24T03:36:25;0.68;;;0.30;;
50789;SDS011;37287;47.554;7.844;2023-04-24T03:38:52;0.73;;;0.30;;
50789;SDS011;37287;47.554;7.844;2023-04-24T03:41:18;1.17;;;0.35;;
50789;SDS011;37287;47.554;7.844;2023-04-24T03:43:45;0.77;;;0.35;;
50789;SDS011;37287;47.554;7.844;2023-04-24T03:46:12;1.27;;;0.50;;
50789;SDS011;37287;47.554;7.844;2023-04-24T03:48:39;1.30;;;0.60;;
50789;SDS011;37287;47.554;7.844;2023-04-24T03:51:05;0.40;;;0.40;;
50789;SDS011;37287;47.554;7.844;2023-04-24T03:53:34;5.65;;;0.50;;
50789;SDS011;37287;47.554;7.844;2023-04-24T03:56:01;1.10;;;0.70;;
50789;SDS011;37287;47.554;7.844;2023-04-24T03:58:29;0.68;;;0.50;;
50789;SDS011;37287;47.554;7.844;2023-04-24T04:00:58;1.45;;;0.70;;
50789;SDS011;37287;47.554;7.844;2023-04-24T04:03:25;1.77;;;0.73;;
50789;SDS011;37287;47.554;7.844;2023-04-24T04:05:52;1.95;;;0.70;;
50789;SDS011;37287;47.554;7.844;2023-04-24T04:08:20;1.33;;;0.70;;
50789;SDS011;37287;47.554;7.844;2023-04-24T04:10:47;2.08;;;0.73;;
50789;SDS011;37287;47.554;7.844;2023-04-24T04:13:13;0.80;;;0.60;;
50789;SDS011;37287;47.554;7.844;2023-04-24T04:15:42;0.70;;;0.70;;
50789;SDS011;37287;47.554;7.844;2023-04-24T04:18:09;2.60;;;0.85;;
50789;SDS011;37287;47.554;7.844;2023-04-24T04:20:39;0.73;;;0.70;;
50789;SDS011;37287;47.554;7.844;2023-04-24T04:23:09;0.75;;;0.75;;
50789;SDS011;37287;47.554;7.844;2023-04-24T04:25:36;1.30;;;0.63;;
50789;SDS011;37287;47.554;7.844;2023-04-24T04:28:02;1.23;;;0.80;;
50789;SDS011;37287;47.554;7.844;2023-04-24T04:30:29;1.65;;;1.13;;
50789;SDS011;37287;47.554;7.844;2023-04-24T04:32:58;2.15;;;0.90;;
50789;SDS011;37287;47.554;7.844;2023-04-24T04:35:25;1.10;;;0.70;;
50789;SDS011;37287;47.554;7.844;2023-04-24T04:37:54;1.42;;;0.98;;
50789;SDS011;37287;47.554;7.844;2023-04-24T04:40:25;1.38;;;1.00;;
50789;SDS011;37287;47.554;7.844;2023-04-24T04:42:52;1.77;;;1.10;;
50789;SDS011;37287;47.554;7.844;2023-04-24T04:45:19;1.63;;;1.10;;
50789;SDS011;37287;47.554;7.844;2023-04-24T04:47:48;4.60;;;1.10;;
50789;SDS011;37287;47.554;7.844;2023-04-24T04:50:14;1.88;;;1.38;;
50789;SDS011;37287;47.554;7.844;2023-04-24T04:52:48;2.20;;;1.13;;
50789;SDS011;37287;47.554;7.844;2023-04-24T04:55:14;1.25;;;1.05;;
50789;SDS011;37287;47.554;7.844;2023-04-24T04:57:41;3.50;;;1.40;;
50789;SDS011;37287;47.554;7.844;2023-04-24T05:00:14;3.97;;;1.23;;
50789;SDS011;37287;47.554;7.844;2023-04-24T05:02:41;1.80;;;1.27;;
50789;SDS011;37287;47.554;7.844;2023-04-24T05:05:08;1.27;;;1.17;;
50789;SDS011;37287;47.554;7.844;2023-04-24T05:07:37;1.60;;;1.50;;
50789;SDS011;37287;47.554;7.844;2023-04-24T05:10:03;1.30;;;1.20;;
50789;SDS011;37287;47.554;7.844;2023-04-24T05:12:30;1.45;;;1.30;;
50789;SDS011;37287;47.554;7.844;2023-04-24T05:14:59;1.17;;;1.08;;
50789;SDS011;37287;47.554;7.844;2023-04-24T05:17:25;2.85;;;1.48;;
50789;SDS011;37287;47.554;7.844;2023-04-24T05:19:52;3.72;;;1.52;;
50789;SDS011;37287;47.554;7.844;2023-04-24T05:22:19;1.42;;;1.33;;
50789;SDS011;37287;47.554;7.844;2023-04-24T05:24:47;2.05;;;1.55;;
50789;SDS011;37287;47.554;7.844;2023-04-24T05:27:14;3.05;;;1.73;;
50789;SDS011;37287;47.554;7.844;2023-04-24T05:29:43;2.22;;;1.30;;
50789;SDS011;37287;47.554;7.844;2023-04-24T05:32:10;5.05;;;1.90;;
50789;SDS011;37287;47.554;7.844;2023-04-24T05:34:36;2.60;;;1.50;;
50789;SDS011;37287;47.554;7.844;2023-04-24T05:37:05;1.80;;;1.38;;
50789;SDS011;37287;47.554;7.844;2023-04-24T05:39:34;3.47;;;1.50;;
50789;SDS011;37287;47.554;7.844;2023-04-24T05:42:01;1.60;;;1.50;;
50789;SDS011;37287;47.554;7.844;2023-04-24T05:44:29;1.50;;;1.40;;
50789;SDS011;37287;47.554;7.844;2023-04-24T05:46:56;1.50;;;1.40;;
50789;SDS011;37287;47.554;7.844;2023-04-24T05:49:23;5.35;;;1.92;;
50789;SDS011;37287;47.554;7.844;2023-04-24T05:51:51;2.10;;;1.73;;
50789;SDS011;37287;47.554;7.844;2023-04-24T05:54:18;2.38;;;1.63;;
50789;SDS011;37287;47.554;7.844;2023-04-24T05:56:45;3.85;;;1.73;;
50789;SDS011;37287;47.554;7.844;2023-04-24T05:59:13;3.13;;;1.60;;
50789;SDS011;37287;47.554;7.844;2023-04-24T06:01:40;4.65;;;1.80;;
50789;SDS011;37287;47.554;7.844;2023-04-24T06:04:06;2.65;;;2.00;;
50789;SDS011;37287;47.554;7.844;2023-04-24T06:06:39;2.78;;;2.20;;
50789;SDS011;37287;47.554;7.844;2023-04-24T06:09:06;4.00;;;2.10;;
50789;SDS011;37287;47.554;7.844;2023-04-24T06:11:36;2.67;;;2.00;;
50789;SDS011;37287;47.554;7.844;2023-04-24T06:14:05;2.88;;;2.25;;
50789;SDS011;37287;47.554;7.844;2023-04-24T06:16:32;3.08;;;2.05;;
50789;SDS011;37287;47.554;7.844;2023-04-24T06:18:58;2.15;;;1.90;;
50789;SDS011;37287;47.554;7.844;2023-04-24T06:21:29;3.40;;;2.30;;
50789;SDS011;37287;47.554;7.844;2023-04-24T06:23:55;2.47;;;2.03;;
50789;SDS011;37287;47.554;7.844;2023-04-24T06:26:22;3.03;;;2.22;;
50789;SDS011;37287;47.554;7.844;2023-04-24T06:28:51;2.15;;;1.95;;
50789;SDS011;37287;47.554;7.844;2023-04-24T06:31:17;3.25;;;2.10;;
50789;SDS011;37287;47.554;7.844;2023-04-24T06:33:48;3.58;;;2.28;;
50789;SDS011;37287;47.554;7.844;2023-04-24T06:36:17;1.95;;;1.85;;
50789;SDS011;37287;47.554;7.844;2023-04-24T06:38:44;3.53;;;2.20;;
50789;SDS011;37287;47.554;7.844;2023-04-24T06:41:10;2.53;;;2.00;;
50789;SDS011;37287;47.554;7.844;2023-04-24T06:43:37;1.50;;;1.40;;
50789;SDS011;37287;47.554;7.844;2023-04-24T06:46:06;3.28;;;1.38;;
50789;SDS011;37287;47.554;7.844;2023-04-24T06:48:33;1.40;;;1.30;;
50789;SDS011;37287;47.554;7.844;2023-04-24T06:51:01;1.90;;;1.17;;
50789;SDS011;37287;47.554;7.844;2023-04-24T06:53:27;2.85;;;1.20;;
50789;SDS011;37287;47.554;7.844;2023-04-24T06:55:54;1.63;;;1.30;;
50789;SDS011;37287;47.554;7.844;2023-04-24T06:58:23;2.13;;;1.30;;
50789;SDS011;37287;47.554;7.844;2023-04-24T07:00:51;2.85;;;1.45;;
50789;SDS011;37287;47.554;7.844;2023-04-24T07:03:17;2.55;;;1.50;;
50789;SDS011;37287;47.554;7.844;2023-04-24T07:05:44;2.80;;;1.98;;
50789;SDS011;37287;47.554;7.844;2023-04-24T07:08:12;3.63;;;1.95;;
50789;SDS011;37287;47.554;7.844;2023-04-24T07:10:39;2.65;;;1.85;;
50789;SDS011;37287;47.554;7.844;2023-04-24T07:13:11;3.53;;;2.20;;
50789;SDS011;37287;47.554;7.844;2023-04-24T07:15:37;5.55;;;2.20;;
50789;SDS011;37287;47.554;7.844;2023-04-24T07:18:05;4.82;;;2.70;;
50789;SDS011;37287;47.554;7.844;2023-04-24T07:20:33;5.10;;;2.65;;
50789;SDS011;37287;47.554;7.844;2023-04-24T07:23:00;4.00;;;2.50;;
50789;SDS011;37287;47.554;7.844;2023-04-24T07:25:30;2.58;;;2.38;;
50789;SDS011;37287;47.554;7.844;2023-04-24T07:27:59;4.45;;;2.33;;
50789;SDS011;37287;47.554;7.844;2023-04-24T07:30:26;2.88;;;2.38;;
50789;SDS011;37287;47.554;7.844;2023-04-24T07:32:54;5.90;;;2.20;;
50789;SDS011;37287;47.554;7.844;2023-04-24T07:35:22;3.50;;;2.30;;
50789;SDS011;37287;47.554;7.844;2023-04-24T07:37:54;6.13;;;2.17;;
50789;SDS011;37287;47.554;7.844;2023-04-24T07:40:21;3.95;;;2.55;;
50789;SDS011;37287;47.554;7.844;2023-04-24T07:42:48;2.65;;;2.10;;
50789;SDS011;37287;47.554;7.844;2023-04-24T07:45:15;3.03;;;2.13;;
50789;SDS011;37287;47.554;7.844;2023-04-24T07:47:42;3.97;;;2.53;;
50789;SDS011;37287;47.554;7.844;2023-04-24T07:50:13;4.65;;;2.35;;
50789;SDS011;37287;47.554;7.844;2023-04-24T07:52:40;5.32;;;1.95;;
50789;SDS011;37287;47.554;7.844;2023-04-24T07:55:07;3.08;;;1.80;;
50789;SDS011;37287;47.554;7.844;2023-04-24T07:57:33;2.38;;;1.90;;
50789;SDS011;37287;47.554;7.844;2023-04-24T08:00:01;2.40;;;1.88;;
50789;SDS011;37287;47.554;7.844;2023-04-24T08:02:31;2.53;;;1.85;;
50789;SDS011;37287;47.554;7.844;2023-04-24T08:04:59;4.03;;;2.20;;
50789;SDS011;37287;47.554;7.844;2023-04-24T08:07:26;2.53;;;2.10;;
50789;SDS011;37287;47.554;7.844;2023-04-24T08:09:52;6.00;;;2.17;;
50789;SDS011;37287;47.554;7.844;2023-04-24T08:12:19;4.28;;;2.20;;
50789;SDS011;37287;47.554;7.844;2023-04-24T08:14:47;2.83;;;2.08;;
50789;SDS011;37287;47.554;7.844;2023-04-24T08:17:14;3.55;;;1.90;;
50789;SDS011;37287;47.554;7.844;2023-04-24T08:19:42;1.77;;;1.67;;
50789;SDS011;37287;47.554;7.844;2023-04-24T08:22:17;3.75;;;1.98;;
50789;SDS011;37287;47.554;7.844;2023-04-24T08:24:43;2.38;;;1.80;;
50789;SDS011;37287;47.554;7.844;2023-04-24T08:27:21;4.97;;;2.40;;
50789;SDS011;37287;47.554;7.844;2023-04-24T08:29:47;3.85;;;2.10;;
50789;SDS011;37287;47.554;7.844;2023-04-24T08:32:14;7.15;;;2.38;;
50789;SDS011;37287;47.554;7.844;2023-04-24T08:34:44;3.00;;;2.08;;
50789;SDS011;37287;47.554;7.844;2023-04-24T08:37:14;4.20;;;2.22;;
50789;SDS011;37287;47.554;7.844;2023-04-24T08:39:41;4.03;;;1.75;;
50789;SDS011;37287;47.554;7.844;2023-04-24T08:42:08;2.40;;;1.60;;
50789;SDS011;37287;47.554;7.844;2023-04-24T08:44:35;2.50;;;1.80;;
50789;SDS011;37287;47.554;7.844;2023-04-24T08:47:02;1.95;;;1.60;;
50789;SDS011;37287;47.554;7.844;2023-04-24T08:49:29;3.92;;;2.10;;
50789;SDS011;37287;47.554;7.844;2023-04-24T08:51:55;2.00;;;1.65;;
50789;SDS011;37287;47.554;7.844;2023-04-24T08:54:22;3.28;;;1.85;;
50789;SDS011;37287;47.554;7.844;2023-04-24T08:56:58;3.20;;;1.60;;
50789;SDS011;37287;47.554;7.844;2023-04-24T08:59:27;3.85;;;1.90;;
50789;SDS011;37287;47.554;7.844;2023-04-24T09:02:01;2.55;;;1.73;;
50789;SDS011;37287;47.554;7.844;2023-04-24T09:04:30;2.03;;;1.50;;
50789;SDS011;37287;47.554;7.844;2023-04-24T09:07:00;3.78;;;1.67;;
50789;SDS011;37287;47.554;7.844;2023-04-24T09:09:28;3.47;;;1.98;;
50789;SDS011;37287;47.554;7.844;2023-04-24T09:11:59;4.18;;;1.92;;
50789;SDS011;37287;47.554;7.844;2023-04-24T09:14:26;3.03;;;1.90;;
50789;SDS011;37287;47.554;7.844;2023-04-24T09:16:54;3.50;;;1.83;;
50789;SDS011;37287;47.554;7.844;2023-04-24T09:19:21;2.53;;;1.73;;
50789;SDS011;37287;47.554;7.844;2023-04-24T09:21:48;1.85;;;1.58;;
50789;SDS011;37287;47.554;7.844;2023-04-24T09:24:21;3.65;;;1.55;;
50789;SDS011;37287;47.554;7.844;2023-04-24T09:26:55;1.50;;;1.40;;
50789;SDS011;37287;47.554;7.844;2023-04-24T09:29:26;4.30;;;1.88;;
50789;SDS011;37287;47.554;7.844;2023-04-24T09:31:53;1.73;;;1.50;;
50789;SDS011;37287;47.554;7.844;2023-04-24T09:34:21;2.60;;;1.58;;
50789;SDS011;37287;47.554;7.844;2023-04-24T09:36:50;6.30;;;2.15;;
50789;SDS011;37287;47.554;7.844;2023-04-24T09:39:18;1.83;;;1.50;;
50789;SDS011;37287;47.554;7.844;2023-04-24T09:41:49;2.55;;;1.83;;
50789;SDS011;37287;47.554;7.844;2023-04-24T09:44:25;2.03;;;1.58;;
50789;SDS011;37287;47.554;7.844;2023-04-24T09:46:55;4.80;;;1.80;;
50789;SDS011;37287;47.554;7.844;2023-04-24T09:51:52;5.43;;;1.80;;
50789;SDS011;37287;47.554;7.844;2023-04-24T09:54:29;2.63;;;1.90;;
50789;SDS011;37287;47.554;7.844;2023-04-24T09:57:01;3.83;;;1.73;;
50789;SDS011;37287;47.554;7.844;2023-04-24T09:59:28;1.73;;;1.50;;
50789;SDS011;37287;47.554;7.844;2023-04-24T10:01:55;1.88;;;1.70;;
50789;SDS011;37287;47.554;7.844;2023-04-24T10:04:25;3.90;;;1.60;;
50789;SDS011;37287;47.554;7.844;2023-04-24T10:06:54;4.55;;;1.98;;
50789;SDS011;37287;47.554;7.844;2023-04-24T10:09:22;3.75;;;1.73;;
50789;SDS011;37287;47.554;7.844;2023-04-24T10:11:56;3.50;;;2.00;;
50789;SDS011;37287;47.554;7.844;2023-04-24T10:14:23;7.32;;;1.90;;
50789;SDS011;37287;47.554;7.844;2023-04-24T10:16:52;2.83;;;1.85;;
50789;SDS011;37287;47.554;7.844;2023-04-24T10:19:20;1.80;;;1.70;;
50789;SDS011;37287;47.554;7.844;2023-04-24T10:21:47;2.30;;;1.50;;
50789;SDS011;37287;47.554;7.844;2023-04-24T10:24:16;4.40;;;1.90;;
50789;SDS011;37287;47.554;7.844;2023-04-24T10:26:44;3.20;;;1.52;;
50789;SDS011;37287;47.554;7.844;2023-04-24T10:29:12;2.63;;;1.65;;
50789;SDS011;37287;47.554;7.844;2023-04-24T10:31:41;2.50;;;1.67;;
50789;SDS011;37287;47.554;7.844;2023-04-24T10:34:14;2.22;;;1.77;;
50789;SDS011;37287;47.554;7.844;2023-04-24T10:36:43;1.23;;;1.13;;
50789;SDS011;37287;47.554;7.844;2023-04-24T10:39:14;3.00;;;1.70;;
50789;SDS011;37287;47.554;7.844;2023-04-24T10:41:44;2.50;;;1.30;;
50789;SDS011;37287;47.554;7.844;2023-04-24T10:44:15;2.78;;;1.38;;
50789;SDS011;37287;47.554;7.844;2023-04-24T10:46:43;2.13;;;1.50;;
50789;SDS011;37287;47.554;7.844;2023-04-24T10:49:19;2.28;;;1.42;;
50789;SDS011;37287;47.554;7.844;2023-04-24T10:51:54;2.22;;;1.70;;
50789;SDS011;37287;47.554;7.844;2023-04-24T10:54:30;1.55;;;1.38;;
50789;SDS011;37287;47.554;7.844;2023-04-24T11:05:53;3.25;;;1.63;;
50789;SDS011;37287;47.554;7.844;2023-04-24T11:08:26;4.03;;;1.80;;
50789;SDS011;37287;47.554;7.844;2023-04-24T11:11:08;2.05;;;1.58;;
50789;SDS011;37287;47.554;7.844;2023-04-24T11:16:30;2.58;;;1.40;;
50789;SDS011;37287;47.554;7.844;2023-04-24T11:19:42;2.33;;;1.70;;
50789;SDS011;37287;47.554;7.844;2023-04-24T11:21:55;5.00;;;1.48;;
50789;SDS011;37287;47.554;7.844;2023-04-24T11:24:25;4.35;;;1.80;;
50789;SDS011;37287;47.554;7.844;2023-04-24T11:26:54;3.65;;;1.73;;
50789;SDS011;37287;47.554;7.844;2023-04-24T11:32:17;3.75;;;1.60;;
50789;SDS011;37287;47.554;7.844;2023-04-24T11:34:56;3.25;;;1.60;;
50789;SDS011;37287;47.554;7.844;2023-04-24T11:37:28;2.53;;;1.50;;
50789;SDS011;37287;47.554;7.844;2023-04-24T11:39:59;1.92;;;1.33;;
50789;SDS011;37287;47.554;7.844;2023-04-24T11:42:27;3.85;;;1.27;;
50789;SDS011;37287;47.554;7.844;2023-04-24T11:44:54;2.47;;;1.40;;
50789;SDS011;37287;47.554;7.844;2023-04-24T11:47:29;2.42;;;1.48;;
50789;SDS011;37287;47.554;7.844;2023-04-24T11:49:57;1.60;;;1.50;;
50789;SDS011;37287;47.554;7.844;2023-04-24T11:52:28;3.72;;;1.60;;
50789;SDS011;37287;47.554;7.844;2023-04-24T11:54:57;2.00;;;1.33;;
50789;SDS011;37287;47.554;7.844;2023-04-24T11:57:24;2.58;;;1.35;;
50789;SDS011;37287;47.554;7.844;2023-04-24T11:59:56;6.70;;;1.40;;
50789;SDS011;37287;47.554;7.844;2023-04-24T12:02:23;1.63;;;1.25;;
50789;SDS011;37287;47.554;7.844;2023-04-24T12:04:52;3.78;;;1.50;;
50789;SDS011;37287;47.554;7.844;2023-04-24T12:07:24;2.13;;;1.48;;
50789;SDS011;37287;47.554;7.844;2023-04-24T12:09:57;5.45;;;1.35;;
50789;SDS011;37287;47.554;7.844;2023-04-24T12:12:26;3.72;;;1.75;;
50789;SDS011;37287;47.554;7.844;2023-04-24T12:20:02;3.13;;;1.50;;
50789;SDS011;37287;47.554;7.844;2023-04-24T12:25:18;1.13;;;1.02;;
50789;SDS011;37287;47.554;7.844;2023-04-24T12:27:46;2.55;;;1.45;;
50789;SDS011;37287;47.554;7.844;2023-04-24T12:30:17;3.65;;;1.40;;
50789;SDS011;37287;47.554;7.844;2023-04-24T12:32:47;3.38;;;1.45;;
50789;SDS011;37287;47.554;7.844;2023-04-24T12:35:19;1.33;;;1.20;;
50789;SDS011;37287;47.554;7.844;2023-04-24T12:37:49;5.00;;;1.40;;
50789;SDS011;37287;47.554;7.844;2023-04-24T12:40:17;5.57;;;1.38;;
50789;SDS011;37287;47.554;7.844;2023-04-24T12:42:46;2.58;;;1.75;;
50789;SDS011;37287;47.554;7.844;2023-04-24T12:45:16;2.10;;;1.40;;
50789;SDS011;37287;47.554;7.844;2023-04-24T12:47:46;3.13;;;1.40;;
50789;SDS011;37287;47.554;7.844;2023-04-24T12:50:13;2.45;;;1.50;;
50789;SDS011;37287;47.554;7.844;2023-04-24T12:52:45;2.50;;;1.52;;
50789;SDS011;37287;47.554;7.844;2023-04-24T12:55:12;2.78;;;1.52;;
50789;SDS011;37287;47.554;7.844;2023-04-24T12:57:39;1.48;;;1.20;;
50789;SDS011;37287;47.554;7.844;2023-04-24T13:00:10;2.53;;;1.23;;
50789;SDS011;37287;47.554;7.844;2023-04-24T13:02:37;1.67;;;1.38;;
50789;SDS011;37287;47.554;7.844;2023-04-24T13:05:05;7.38;;;1.70;;
50789;SDS011;37287;47.554;7.844;2023-04-24T13:07:32;5.35;;;1.70;;
50789;SDS011;37287;47.554;7.844;2023-04-24T13:09:59;2.97;;;1.60;;
50789;SDS011;37287;47.554;7.844;2023-04-24T13:12:25;9.07;;;2.08;;
50789;SDS011;37287;47.554;7.844;2023-04-24T13:14:52;6.55;;;1.90;;
50789;SDS011;37287;47.554;7.844;2023-04-24T13:17:19;2.35;;;1.63;;
50789;SDS011;37287;47.554;7.844;2023-04-24T13:19:46;3.20;;;1.70;;
50789;SDS011;37287;47.554;7.844;2023-04-24T13:22:14;5.13;;;1.70;;
50789;SDS011;37287;47.554;7.844;2023-04-24T13:24:41;2.45;;;1.75;;
50789;SDS011;37287;47.554;7.844;2023-04-24T13:27:08;2.85;;;2.00;;
50789;SDS011;37287;47.554;7.844;2023-04-24T13:29:37;2.50;;;1.73;;
50789;SDS011;37287;47.554;7.844;2023-04-24T13:32:03;2.38;;;1.60;;
50789;SDS011;37287;47.554;7.844;2023-04-24T13:34:30;1.70;;;1.60;;
50789;SDS011;37287;47.554;7.844;2023-04-24T13:37:02;3.28;;;1.60;;
50789;SDS011;37287;47.554;7.844;2023-04-24T13:39:30;3.78;;;1.80;;
50789;SDS011;37287;47.554;7.844;2023-04-24T13:41:57;2.72;;;1.83;;
50789;SDS011;37287;47.554;7.844;2023-04-24T13:44:24;3.05;;;1.70;;
50789;SDS011;37287;47.554;7.844;2023-04-24T13:46:52;6.47;;;1.65;;
50789;SDS011;37287;47.554;7.844;2023-04-24T13:49:38;6.63;;;1.70;;
50789;SDS011;37287;47.554;7.844;2023-04-24T13:52:04;2.28;;;1.27;;
50789;SDS011;37287;47.554;7.844;2023-04-24T13:54:31;4.07;;;1.77;;
50789;SDS011;37287;47.554;7.844;2023-04-24T13:57:00;3.13;;;1.90;;
50789;SDS011;37287;47.554;7.844;2023-04-24T13:59:29;5.95;;;1.70;;
50789;SDS011;37287;47.554;7.844;2023-04-24T14:01:55;5.38;;;1.85;;
50789;SDS011;37287;47.554;7.844;2023-04-24T14:04:22;3.65;;;1.70;;
50789;SDS011;37287;47.554;7.844;2023-04-24T14:06:50;1.90;;;1.63;;
50789;SDS011;37287;47.554;7.844;2023-04-24T14:09:17;3.22;;;1.63;;
50789;SDS011;37287;47.554;7.844;2023-04-24T14:11:43;4.40;;;1.63;;
50789;SDS011;37287;47.554;7.844;2023-04-24T14:14:10;4.40;;;1.58;;
50789;SDS011;37287;47.554;7.844;2023-04-24T14:16:37;2.22;;;1.50;;
50789;SDS011;37287;47.554;7.844;2023-04-24T14:19:04;3.33;;;1.80;;
50789;SDS011;37287;47.554;7.844;2023-04-24T14:21:32;2.83;;;1.60;;
50789;SDS011;37287;47.554;7.844;2023-04-24T14:23:59;7.03;;;1.33;;
50789;SDS011;37287;47.554;7.844;2023-04-24T14:26:25;1.60;;;1.40;;
50789;SDS011;37287;47.554;7.844;2023-04-24T14:28:52;3.42;;;1.50;;
50789;SDS011;37287;47.554;7.844;2023-04-24T14:31:36;4.80;;;1.30;;
50789;SDS011;37287;47.554;7.844;2023-04-24T14:34:03;3.35;;;1.42;;
50789;SDS011;37287;47.554;7.844;2023-04-24T14:36:29;2.50;;;1.50;;
50789;SDS011;37287;47.554;7.844;2023-04-24T14:38:59;1.65;;;1.30;;
50789;SDS011;37287;47.554;7.844;2023-04-24T14:41:30;2.65;;;1.60;;
50789;SDS011;37287;47.554;7.844;2023-04-24T14:43:57;2.15;;;1.45;;
50789;SDS011;37287;47.554;7.844;2023-04-24T14:46:24;2.72;;;1.65;;
50789;SDS011;37287;47.554;7.844;2023-04-24T14:48:52;2.83;;;1.40;;
50789;SDS011;37287;47.554;7.844;2023-04-24T14:51:19;1.98;;;1.30;;
50789;SDS011;37287;47.554;7.844;2023-04-24T14:53:46;3.17;;;1.52;;
50789;SDS011;37287;47.554;7.844;2023-04-24T14:56:14;3.88;;;1.70;;
50789;SDS011;37287;47.554;7.844;2023-04-24T14:58:44;3.22;;;2.35;;
50789;SDS011;37287;47.554;7.844;2023-04-24T15:01:11;4.40;;;2.55;;
50789;SDS011;37287;47.554;7.844;2023-04-24T15:03:43;3.58;;;2.00;;
50789;SDS011;37287;47.554;7.844;2023-04-24T15:06:10;1.52;;;1.42;;
50789;SDS011;37287;47.554;7.844;2023-04-24T15:08:37;2.97;;;1.55;;
50789;SDS011;37287;47.554;7.844;2023-04-24T15:11:05;2.78;;;1.77;;
50789;SDS011;37287;47.554;7.844;2023-04-24T15:13:32;1.80;;;1.30;;
50789;SDS011;37287;47.554;7.844;2023-04-24T15:15:59;2.00;;;1.50;;
50789;SDS011;37287;47.554;7.844;2023-04-24T15:18:27;2.17;;;1.50;;
50789;SDS011;37287;47.554;7.844;2023-04-24T15:20:55;1.95;;;1.60;;